sensor_id;sensor_type;location;lat;lon;timestamp;P1;durP1;ratioP1;P2;durP2;ratioP2
15055;SDS011;7626;42.674;23.284;2023-06-26T00:01:29;14.40;;;12.80;;
15055;SDS011;7626;42.674;23.284;2023-06-26T00:03:56;15.63;;;13.10;;
15055;SDS011;7626;42.674;23.284;2023-06-26T00:06:24;15.65;;;13.57;;
15055;SDS011;7626;42.674;23.284;2023-06-26T00:08:51;14.40;;;12.57;;
15055;SDS011;7626;42.674;23.284;2023-06-26T00:11:18;13.80;;;12.32;;
15055;SDS011;7626;42.674;23.284;2023-06-26T00:13:44;12.15;;;10.85;;
15055;SDS011;7626;42.674;23.284;2023-06-26T00:16:12;13.57;;;11.85;;
15055;SDS011;7626;42.674;23.284;2023-06-26T00:18:39;13.32;;;11.93;;
15055;SDS011;7626;42.674;23.284;2023-06-26T00:21:05;12.45;;;11.15;;
15055;SDS011;7626;42.674;23.284;2023-06-26T00:23:31;12.32;;;11.02;;
15055;SDS011;7626;42.674;23.284;2023-06-26T00:26:02;11.95;;;10.73;;
15055;SDS011;7626;42.674;23.284;2023-06-26T00:28:28;13.40;;;11.90;;
15055;SDS011;7626;42.674;23.284;2023-06-26T00:30:55;11.90;;;10.32;;
15055;SDS011;7626;42.674;23.284;2023-06-26T00:33:22;11.75;;;10.55;;
15055;SDS011;7626;42.674;23.284;2023-06-26T00:35:49;12.82;;;10.35;;
15055;SDS011;7626;42.674;23.284;2023-06-26T00:38:15;13.20;;;11.35;;
15055;SDS011;7626;42.674;23.284;2023-06-26T00:40:42;12.02;;;10.20;;
15055;SDS011;7626;42.674;23.284;2023-06-26T00:43:09;11.52;;;9.93;;
15055;SDS011;7626;42.674;23.284;2023-06-26T00:45:35;11.35;;;10.25;;
15055;SDS011;7626;42.674;23.284;2023-06-26T00:48:01;11.63;;;10.45;;
15055;SDS011;7626;42.674;23.284;2023-06-26T00:50:30;10.35;;;9.25;;
15055;SDS011;7626;42.674;23.284;2023-06-26T00:52:57;9.73;;;8.73;;
15055;SDS011;7626;42.674;23.284;2023-06-26T00:55:25;9.82;;;8.85;;
15055;SDS011;7626;42.674;23.284;2023-06-26T00:57:52;10.38;;;8.75;;
15055;SDS011;7626;42.674;23.284;2023-06-26T01:00:19;10.25;;;9.25;;
15055;SDS011;7626;42.674;23.284;2023-06-26T01:02:45;10.13;;;9.10;;
15055;SDS011;7626;42.674;23.284;2023-06-26T01:05:12;11.20;;;9.35;;
15055;SDS011;7626;42.674;23.284;2023-06-26T01:07:47;9.20;;;8.30;;
15055;SDS011;7626;42.674;23.284;2023-06-26T01:10:14;9.65;;;8.52;;
15055;SDS011;7626;42.674;23.284;2023-06-26T01:12:41;10.70;;;8.77;;
15055;SDS011;7626;42.674;23.284;2023-06-26T01:15:08;9.48;;;8.57;;
15055;SDS011;7626;42.674;23.284;2023-06-26T01:17:36;10.05;;;8.07;;
15055;SDS011;7626;42.674;23.284;2023-06-26T01:20:03;9.60;;;8.70;;
15055;SDS011;7626;42.674;23.284;2023-06-26T01:22:34;9.48;;;8.52;;
15055;SDS011;7626;42.674;23.284;2023-06-26T01:25:14;10.15;;;9.10;;
15055;SDS011;7626;42.674;23.284;2023-06-26T01:27:45;9.18;;;8.27;;
15055;SDS011;7626;42.674;23.284;2023-06-26T01:30:12;10.52;;;9.13;;
15055;SDS011;7626;42.674;23.284;2023-06-26T01:32:39;9.82;;;8.75;;
15055;SDS011;7626;42.674;23.284;2023-06-26T01:35:06;9.65;;;8.75;;
15055;SDS011;7626;42.674;23.284;2023-06-26T01:37:33;10.20;;;9.02;;
15055;SDS011;7626;42.674;23.284;2023-06-26T01:39:59;9.95;;;8.95;;
15055;SDS011;7626;42.674;23.284;2023-06-26T01:42:26;9.70;;;8.68;;
15055;SDS011;7626;42.674;23.284;2023-06-26T01:44:54;10.13;;;9.02;;
15055;SDS011;7626;42.674;23.284;2023-06-26T01:47:23;11.57;;;9.20;;
15055;SDS011;7626;42.674;23.284;2023-06-26T01:49:52;11.68;;;9.27;;
15055;SDS011;7626;42.674;23.284;2023-06-26T01:52:20;11.50;;;10.30;;
15055;SDS011;7626;42.674;23.284;2023-06-26T01:54:58;9.88;;;8.77;;
15055;SDS011;7626;42.674;23.284;2023-06-26T01:57:27;10.70;;;9.60;;
15055;SDS011;7626;42.674;23.284;2023-06-26T01:59:55;10.10;;;9.07;;
15055;SDS011;7626;42.674;23.284;2023-06-26T02:02:23;10.95;;;9.85;;
15055;SDS011;7626;42.674;23.284;2023-06-26T02:04:50;10.75;;;9.30;;
15055;SDS011;7626;42.674;23.284;2023-06-26T02:07:17;10.00;;;9.07;;
15055;SDS011;7626;42.674;23.284;2023-06-26T02:09:43;10.98;;;9.13;;
15055;SDS011;7626;42.674;23.284;2023-06-26T02:12:10;10.25;;;8.68;;
15055;SDS011;7626;42.674;23.284;2023-06-26T02:14:36;10.38;;;8.63;;
15055;SDS011;7626;42.674;23.284;2023-06-26T02:17:05;9.63;;;8.65;;
15055;SDS011;7626;42.674;23.284;2023-06-26T02:19:34;9.95;;;9.02;;
15055;SDS011;7626;42.674;23.284;2023-06-26T02:22:00;10.40;;;9.25;;
15055;SDS011;7626;42.674;23.284;2023-06-26T02:24:27;11.18;;;9.90;;
15055;SDS011;7626;42.674;23.284;2023-06-26T02:26:55;10.80;;;9.80;;
15055;SDS011;7626;42.674;23.284;2023-06-26T02:29:21;11.70;;;10.60;;
15055;SDS011;7626;42.674;23.284;2023-06-26T02:31:48;11.20;;;10.00;;
15055;SDS011;7626;42.674;23.284;2023-06-26T02:34:16;11.43;;;10.30;;
15055;SDS011;7626;42.674;23.284;2023-06-26T02:36:43;12.15;;;10.85;;
15055;SDS011;7626;42.674;23.284;2023-06-26T02:39:09;11.63;;;10.50;;
15055;SDS011;7626;42.674;23.284;2023-06-26T02:41:36;11.90;;;10.18;;
15055;SDS011;7626;42.674;23.284;2023-06-26T02:44:02;11.63;;;10.43;;
15055;SDS011;7626;42.674;23.284;2023-06-26T02:46:29;11.40;;;10.15;;
15055;SDS011;7626;42.674;23.284;2023-06-26T02:48:55;12.70;;;11.48;;
15055;SDS011;7626;42.674;23.284;2023-06-26T02:51:23;12.70;;;9.90;;
15055;SDS011;7626;42.674;23.284;2023-06-26T02:53:50;11.15;;;9.98;;
15055;SDS011;7626;42.674;23.284;2023-06-26T02:56:16;12.43;;;11.23;;
15055;SDS011;7626;42.674;23.284;2023-06-26T02:58:42;12.57;;;11.00;;
15055;SDS011;7626;42.674;23.284;2023-06-26T03:01:09;11.65;;;10.43;;
15055;SDS011;7626;42.674;23.284;2023-06-26T03:03:35;12.57;;;11.27;;
15055;SDS011;7626;42.674;23.284;2023-06-26T03:06:05;11.32;;;10.23;;
15055;SDS011;7626;42.674;23.284;2023-06-26T03:08:34;12.32;;;11.13;;
15055;SDS011;7626;42.674;23.284;2023-06-26T03:11:01;12.93;;;10.65;;
15055;SDS011;7626;42.674;23.284;2023-06-26T03:13:27;13.70;;;12.00;;
15055;SDS011;7626;42.674;23.284;2023-06-26T03:15:54;12.52;;;11.23;;
15055;SDS011;7626;42.674;23.284;2023-06-26T03:18:20;12.40;;;10.90;;
15055;SDS011;7626;42.674;23.284;2023-06-26T03:20:47;13.65;;;12.00;;
15055;SDS011;7626;42.674;23.284;2023-06-26T03:23:13;14.23;;;12.73;;
15055;SDS011;7626;42.674;23.284;2023-06-26T03:25:41;13.32;;;11.77;;
15055;SDS011;7626;42.674;23.284;2023-06-26T03:28:08;14.52;;;12.43;;
15055;SDS011;7626;42.674;23.284;2023-06-26T03:30:34;13.50;;;11.55;;
15055;SDS011;7626;42.674;23.284;2023-06-26T03:33:01;13.05;;;11.63;;
15055;SDS011;7626;42.674;23.284;2023-06-26T03:35:27;12.40;;;11.30;;
15055;SDS011;7626;42.674;23.284;2023-06-26T03:37:54;13.30;;;12.00;;
15055;SDS011;7626;42.674;23.284;2023-06-26T03:40:20;12.95;;;11.57;;
15055;SDS011;7626;42.674;23.284;2023-06-26T03:42:48;14.15;;;12.15;;
15055;SDS011;7626;42.674;23.284;2023-06-26T03:45:15;13.43;;;12.10;;
15055;SDS011;7626;42.674;23.284;2023-06-26T03:47:41;13.75;;;12.35;;
15055;SDS011;7626;42.674;23.284;2023-06-26T03:50:08;14.13;;;12.65;;
15055;SDS011;7626;42.674;23.284;2023-06-26T03:52:35;14.10;;;12.60;;
15055;SDS011;7626;42.674;23.284;2023-06-26T03:55:01;15.32;;;12.93;;
15055;SDS011;7626;42.674;23.284;2023-06-26T03:57:28;13.80;;;12.40;;
15055;SDS011;7626;42.674;23.284;2023-06-26T03:59:56;12.98;;;11.52;;
15055;SDS011;7626;42.674;23.284;2023-06-26T04:02:22;13.70;;;12.30;;
15055;SDS011;7626;42.674;23.284;2023-06-26T04:04:49;13.30;;;12.00;;
15055;SDS011;7626;42.674;23.284;2023-06-26T04:07:15;13.63;;;12.32;;
15055;SDS011;7626;42.674;23.284;2023-06-26T04:09:42;13.60;;;12.27;;
15055;SDS011;7626;42.674;23.284;2023-06-26T04:12:08;14.18;;;12.27;;
15055;SDS011;7626;42.674;23.284;2023-06-26T04:14:35;13.15;;;11.85;;
15055;SDS011;7626;42.674;23.284;2023-06-26T04:17:03;12.70;;;11.40;;
15055;SDS011;7626;42.674;23.284;2023-06-26T04:19:30;13.82;;;12.38;;
15055;SDS011;7626;42.674;23.284;2023-06-26T04:21:56;12.35;;;11.23;;
15055;SDS011;7626;42.674;23.284;2023-06-26T04:24:23;13.57;;;12.38;;
15055;SDS011;7626;42.674;23.284;2023-06-26T04:26:50;12.43;;;11.15;;
15055;SDS011;7626;42.674;23.284;2023-06-26T04:29:16;21.73;;;12.95;;
15055;SDS011;7626;42.674;23.284;2023-06-26T04:31:43;13.80;;;12.32;;
15055;SDS011;7626;42.674;23.284;2023-06-26T04:34:12;19.20;;;12.43;;
15055;SDS011;7626;42.674;23.284;2023-06-26T04:36:39;13.02;;;11.15;;
15055;SDS011;7626;42.674;23.284;2023-06-26T04:39:05;14.88;;;11.27;;
15055;SDS011;7626;42.674;23.284;2023-06-26T04:41:32;12.25;;;11.05;;
15055;SDS011;7626;42.674;23.284;2023-06-26T04:43:58;12.27;;;11.07;;
15055;SDS011;7626;42.674;23.284;2023-06-26T04:46:25;13.85;;;12.38;;
15055;SDS011;7626;42.674;23.284;2023-06-26T04:48:52;12.77;;;11.43;;
15055;SDS011;7626;42.674;23.284;2023-06-26T04:51:20;12.25;;;11.05;;
15055;SDS011;7626;42.674;23.284;2023-06-26T04:53:47;14.10;;;11.43;;
15055;SDS011;7626;42.674;23.284;2023-06-26T04:56:13;13.25;;;11.07;;
15055;SDS011;7626;42.674;23.284;2023-06-26T04:58:40;13.45;;;11.20;;
15055;SDS011;7626;42.674;23.284;2023-06-26T05:01:06;13.00;;;11.80;;
15055;SDS011;7626;42.674;23.284;2023-06-26T05:03:33;12.63;;;11.38;;
15055;SDS011;7626;42.674;23.284;2023-06-26T05:06:00;12.38;;;11.10;;
15055;SDS011;7626;42.674;23.284;2023-06-26T05:08:28;12.75;;;11.48;;
15055;SDS011;7626;42.674;23.284;2023-06-26T05:10:54;12.30;;;11.10;;
15055;SDS011;7626;42.674;23.284;2023-06-26T05:13:22;13.02;;;11.75;;
15055;SDS011;7626;42.674;23.284;2023-06-26T05:15:49;14.23;;;11.20;;
15055;SDS011;7626;42.674;23.284;2023-06-26T05:18:16;12.52;;;11.32;;
15055;SDS011;7626;42.674;23.284;2023-06-26T05:20:43;15.30;;;13.13;;
15055;SDS011;7626;42.674;23.284;2023-06-26T05:23:10;13.40;;;12.05;;
15055;SDS011;7626;42.674;23.284;2023-06-26T05:25:38;13.55;;;11.43;;
15055;SDS011;7626;42.674;23.284;2023-06-26T05:28:05;12.07;;;10.77;;
15055;SDS011;7626;42.674;23.284;2023-06-26T05:30:50;12.65;;;11.35;;
15055;SDS011;7626;42.674;23.284;2023-06-26T05:33:17;12.88;;;11.65;;
15055;SDS011;7626;42.674;23.284;2023-06-26T05:35:44;13.70;;;12.40;;
15055;SDS011;7626;42.674;23.284;2023-06-26T05:38:11;13.63;;;12.10;;
15055;SDS011;7626;42.674;23.284;2023-06-26T05:40:40;15.65;;;12.75;;
15055;SDS011;7626;42.674;23.284;2023-06-26T05:43:07;13.10;;;11.77;;
15055;SDS011;7626;42.674;23.284;2023-06-26T05:45:33;15.38;;;11.88;;
15055;SDS011;7626;42.674;23.284;2023-06-26T05:48:00;11.77;;;10.57;;
15055;SDS011;7626;42.674;23.284;2023-06-26T05:50:27;12.82;;;11.63;;
15055;SDS011;7626;42.674;23.284;2023-06-26T05:52:54;13.40;;;12.10;;
15055;SDS011;7626;42.674;23.284;2023-06-26T05:55:21;14.90;;;12.20;;
15055;SDS011;7626;42.674;23.284;2023-06-26T05:57:49;12.23;;;11.02;;
15055;SDS011;7626;42.674;23.284;2023-06-26T06:00:16;12.02;;;10.65;;
15055;SDS011;7626;42.674;23.284;2023-06-26T06:02:43;13.05;;;11.68;;
15055;SDS011;7626;42.674;23.284;2023-06-26T06:05:09;12.30;;;11.07;;
15055;SDS011;7626;42.674;23.284;2023-06-26T06:07:36;14.68;;;12.40;;
15055;SDS011;7626;42.674;23.284;2023-06-26T06:10:03;14.48;;;12.90;;
15055;SDS011;7626;42.674;23.284;2023-06-26T06:12:29;16.20;;;12.10;;
15055;SDS011;7626;42.674;23.284;2023-06-26T06:14:57;12.13;;;10.60;;
15055;SDS011;7626;42.674;23.284;2023-06-26T06:17:24;11.73;;;10.52;;
15055;SDS011;7626;42.674;23.284;2023-06-26T06:19:51;14.07;;;11.85;;
15055;SDS011;7626;42.674;23.284;2023-06-26T06:22:17;11.93;;;10.55;;
15055;SDS011;7626;42.674;23.284;2023-06-26T06:24:44;11.45;;;10.25;;
15055;SDS011;7626;42.674;23.284;2023-06-26T06:27:10;12.90;;;11.60;;
15055;SDS011;7626;42.674;23.284;2023-06-26T06:29:37;11.52;;;10.40;;
15055;SDS011;7626;42.674;23.284;2023-06-26T06:32:05;11.63;;;10.43;;
15055;SDS011;7626;42.674;23.284;2023-06-26T06:34:32;13.35;;;11.20;;
15055;SDS011;7626;42.674;23.284;2023-06-26T06:36:58;11.85;;;10.75;;
15055;SDS011;7626;42.674;23.284;2023-06-26T06:39:25;11.20;;;10.07;;
15055;SDS011;7626;42.674;23.284;2023-06-26T06:41:51;14.48;;;11.38;;
15055;SDS011;7626;42.674;23.284;2023-06-26T06:44:17;12.32;;;11.13;;
15055;SDS011;7626;42.674;23.284;2023-06-26T06:46:44;11.70;;;10.60;;
15055;SDS011;7626;42.674;23.284;2023-06-26T06:49:12;11.20;;;10.10;;
15055;SDS011;7626;42.674;23.284;2023-06-26T06:51:38;10.70;;;9.70;;
15055;SDS011;7626;42.674;23.284;2023-06-26T06:54:05;11.13;;;9.98;;
15055;SDS011;7626;42.674;23.284;2023-06-26T06:56:32;10.85;;;9.82;;
15055;SDS011;7626;42.674;23.284;2023-06-26T06:58:58;10.85;;;9.50;;
15055;SDS011;7626;42.674;23.284;2023-06-26T07:01:25;10.43;;;9.43;;
15055;SDS011;7626;42.674;23.284;2023-06-26T07:03:51;10.10;;;9.13;;
15055;SDS011;7626;42.674;23.284;2023-06-26T07:06:19;9.80;;;8.77;;
15055;SDS011;7626;42.674;23.284;2023-06-26T07:08:45;9.60;;;8.70;;
15055;SDS011;7626;42.674;23.284;2023-06-26T07:11:12;9.15;;;8.25;;
15055;SDS011;7626;42.674;23.284;2023-06-26T07:13:38;8.75;;;7.85;;
15055;SDS011;7626;42.674;23.284;2023-06-26T07:16:05;8.60;;;7.70;;
15055;SDS011;7626;42.674;23.284;2023-06-26T07:18:31;9.43;;;8.52;;
15055;SDS011;7626;42.674;23.284;2023-06-26T07:20:58;11.02;;;9.98;;
15055;SDS011;7626;42.674;23.284;2023-06-26T07:23:26;12.57;;;11.15;;
15055;SDS011;7626;42.674;23.284;2023-06-26T07:25:52;10.27;;;9.18;;
15055;SDS011;7626;42.674;23.284;2023-06-26T07:28:19;11.18;;;8.82;;
15055;SDS011;7626;42.674;23.284;2023-06-26T07:30:45;9.65;;;8.75;;
15055;SDS011;7626;42.674;23.284;2023-06-26T07:33:12;9.23;;;8.32;;
15055;SDS011;7626;42.674;23.284;2023-06-26T07:35:38;8.77;;;7.93;;
15055;SDS011;7626;42.674;23.284;2023-06-26T07:38:05;9.20;;;8.30;;
15055;SDS011;7626;42.674;23.284;2023-06-26T07:40:33;11.20;;;7.60;;
15055;SDS011;7626;42.674;23.284;2023-06-26T07:42:59;15.98;;;8.13;;
15055;SDS011;7626;42.674;23.284;2023-06-26T07:45:25;17.13;;;8.60;;
15055;SDS011;7626;42.674;23.284;2023-06-26T07:47:52;21.05;;;9.80;;
15055;SDS011;7626;42.674;23.284;2023-06-26T07:50:18;11.27;;;7.22;;
15055;SDS011;7626;42.674;23.284;2023-06-26T07:52:47;7.72;;;7.03;;
15055;SDS011;7626;42.674;23.284;2023-06-26T07:55:14;7.60;;;6.65;;
15055;SDS011;7626;42.674;23.284;2023-06-26T07:57:42;8.38;;;6.93;;
15055;SDS011;7626;42.674;23.284;2023-06-26T08:00:10;7.82;;;6.93;;
15055;SDS011;7626;42.674;23.284;2023-06-26T08:02:37;6.38;;;5.80;;
15055;SDS011;7626;42.674;23.284;2023-06-26T08:05:04;7.47;;;6.38;;
15055;SDS011;7626;42.674;23.284;2023-06-26T08:07:31;7.35;;;6.60;;
15055;SDS011;7626;42.674;23.284;2023-06-26T08:09:57;8.82;;;6.45;;
15055;SDS011;7626;42.674;23.284;2023-06-26T08:12:24;7.57;;;6.82;;
15055;SDS011;7626;42.674;23.284;2023-06-26T08:14:52;7.68;;;6.97;;
15055;SDS011;7626;42.674;23.284;2023-06-26T08:17:18;7.50;;;6.70;;
15055;SDS011;7626;42.674;23.284;2023-06-26T08:19:44;8.52;;;6.65;;
15055;SDS011;7626;42.674;23.284;2023-06-26T08:22:11;9.07;;;6.82;;
15055;SDS011;7626;42.674;23.284;2023-06-26T08:24:38;7.18;;;6.57;;
15055;SDS011;7626;42.674;23.284;2023-06-26T08:27:04;8.88;;;7.57;;
15055;SDS011;7626;42.674;23.284;2023-06-26T08:29:32;7.28;;;6.57;;
15055;SDS011;7626;42.674;23.284;2023-06-26T08:32:00;7.10;;;6.40;;
15055;SDS011;7626;42.674;23.284;2023-06-26T08:34:28;7.88;;;6.72;;
15055;SDS011;7626;42.674;23.284;2023-06-26T08:36:54;13.70;;;6.68;;
15055;SDS011;7626;42.674;23.284;2023-06-26T08:39:21;18.52;;;7.05;;
15055;SDS011;7626;42.674;23.284;2023-06-26T08:41:47;10.55;;;6.07;;
15055;SDS011;7626;42.674;23.284;2023-06-26T08:44:14;10.95;;;6.80;;
15055;SDS011;7626;42.674;23.284;2023-06-26T08:46:40;14.10;;;6.93;;
15055;SDS011;7626;42.674;23.284;2023-06-26T08:49:11;309.42;;;38.92;;
15055;SDS011;7626;42.674;23.284;2023-06-26T08:51:40;11.20;;;6.93;;
15055;SDS011;7626;42.674;23.284;2023-06-26T08:54:09;7.63;;;6.30;;
15055;SDS011;7626;42.674;23.284;2023-06-26T08:56:40;6.60;;;6.00;;
15055;SDS011;7626;42.674;23.284;2023-06-26T08:59:08;6.25;;;5.75;;
15055;SDS011;7626;42.674;23.284;2023-06-26T09:01:36;7.00;;;6.30;;
15055;SDS011;7626;42.674;23.284;2023-06-26T09:04:04;7.95;;;5.50;;
15055;SDS011;7626;42.674;23.284;2023-06-26T09:06:32;7.13;;;6.43;;
15055;SDS011;7626;42.674;23.284;2023-06-26T09:08:59;7.90;;;5.68;;
15055;SDS011;7626;42.674;23.284;2023-06-26T09:11:25;7.82;;;6.28;;
15055;SDS011;7626;42.674;23.284;2023-06-26T09:13:53;6.60;;;6.00;;
15055;SDS011;7626;42.674;23.284;2023-06-26T09:16:23;6.45;;;5.82;;
15055;SDS011;7626;42.674;23.284;2023-06-26T09:18:51;6.93;;;6.32;;
15055;SDS011;7626;42.674;23.284;2023-06-26T09:21:18;7.80;;;5.95;;
15055;SDS011;7626;42.674;23.284;2023-06-26T09:23:46;7.60;;;6.03;;
15055;SDS011;7626;42.674;23.284;2023-06-26T09:26:13;8.38;;;6.05;;
15055;SDS011;7626;42.674;23.284;2023-06-26T09:28:41;7.25;;;6.45;;
15055;SDS011;7626;42.674;23.284;2023-06-26T09:31:08;7.28;;;6.35;;
15055;SDS011;7626;42.674;23.284;2023-06-26T09:33:35;8.13;;;7.00;;
15055;SDS011;7626;42.674;23.284;2023-06-26T09:36:04;7.00;;;6.30;;
15055;SDS011;7626;42.674;23.284;2023-06-26T09:38:31;7.10;;;5.95;;
15055;SDS011;7626;42.674;23.284;2023-06-26T09:40:58;10.55;;;6.28;;
15055;SDS011;7626;42.674;23.284;2023-06-26T09:43:25;6.22;;;5.70;;
15055;SDS011;7626;42.674;23.284;2023-06-26T09:45:52;7.70;;;6.60;;
15055;SDS011;7626;42.674;23.284;2023-06-26T09:48:20;7.32;;;5.95;;
15055;SDS011;7626;42.674;23.284;2023-06-26T09:50:46;7.53;;;6.25;;
15055;SDS011;7626;42.674;23.284;2023-06-26T09:53:13;6.90;;;6.20;;
15055;SDS011;7626;42.674;23.284;2023-06-26T09:55:40;9.52;;;5.75;;
15055;SDS011;7626;42.674;23.284;2023-06-26T09:58:10;7.70;;;5.75;;
15055;SDS011;7626;42.674;23.284;2023-06-26T10:00:39;7.40;;;6.60;;
15055;SDS011;7626;42.674;23.284;2023-06-26T10:03:06;8.93;;;6.05;;
15055;SDS011;7626;42.674;23.284;2023-06-26T10:05:33;6.90;;;6.18;;
15055;SDS011;7626;42.674;23.284;2023-06-26T10:08:00;6.80;;;6.15;;
15055;SDS011;7626;42.674;23.284;2023-06-26T10:10:27;7.30;;;6.13;;
15055;SDS011;7626;42.674;23.284;2023-06-26T10:12:56;7.47;;;5.65;;
15055;SDS011;7626;42.674;23.284;2023-06-26T10:15:26;6.25;;;5.65;;
15055;SDS011;7626;42.674;23.284;2023-06-26T10:17:54;6.32;;;5.63;;
15055;SDS011;7626;42.674;23.284;2023-06-26T10:20:22;11.50;;;10.23;;
15055;SDS011;7626;42.674;23.284;2023-06-26T10:22:49;12.20;;;9.27;;
15055;SDS011;7626;42.674;23.284;2023-06-26T10:25:16;9.50;;;6.40;;
15055;SDS011;7626;42.674;23.284;2023-06-26T10:27:45;6.90;;;6.20;;
15055;SDS011;7626;42.674;23.284;2023-06-26T10:30:12;6.20;;;5.60;;
15055;SDS011;7626;42.674;23.284;2023-06-26T10:32:41;7.13;;;6.40;;
15055;SDS011;7626;42.674;23.284;2023-06-26T10:35:08;9.20;;;6.07;;
15055;SDS011;7626;42.674;23.284;2023-06-26T10:37:42;10.38;;;6.43;;
15055;SDS011;7626;42.674;23.284;2023-06-26T10:40:10;11.52;;;6.03;;
15055;SDS011;7626;42.674;23.284;2023-06-26T10:42:37;9.75;;;6.50;;
15055;SDS011;7626;42.674;23.284;2023-06-26T10:45:13;10.00;;;6.50;;
15055;SDS011;7626;42.674;23.284;2023-06-26T10:47:42;7.78;;;6.30;;
15055;SDS011;7626;42.674;23.284;2023-06-26T10:50:18;6.50;;;5.85;;
15055;SDS011;7626;42.674;23.284;2023-06-26T10:52:45;11.75;;;6.38;;
15055;SDS011;7626;42.674;23.284;2023-06-26T10:55:13;7.75;;;6.65;;
15055;SDS011;7626;42.674;23.284;2023-06-26T10:57:39;7.90;;;7.18;;
15055;SDS011;7626;42.674;23.284;2023-06-26T11:00:10;6.90;;;6.22;;
15055;SDS011;7626;42.674;23.284;2023-06-26T11:05:27;7.97;;;6.20;;
15055;SDS011;7626;42.674;23.284;2023-06-26T11:08:03;6.90;;;6.30;;
15055;SDS011;7626;42.674;23.284;2023-06-26T11:10:32;7.00;;;6.32;;
15055;SDS011;7626;42.674;23.284;2023-06-26T11:13:13;8.77;;;6.97;;
15055;SDS011;7626;42.674;23.284;2023-06-26T11:15:42;9.55;;;6.95;;
15055;SDS011;7626;42.674;23.284;2023-06-26T11:18:09;7.25;;;6.50;;
15055;SDS011;7626;42.674;23.284;2023-06-26T11:20:36;9.55;;;6.90;;
15055;SDS011;7626;42.674;23.284;2023-06-26T11:23:03;6.32;;;5.72;;
15055;SDS011;7626;42.674;23.284;2023-06-26T11:25:33;7.43;;;6.72;;
15055;SDS011;7626;42.674;23.284;2023-06-26T11:28:02;7.35;;;6.65;;
15055;SDS011;7626;42.674;23.284;2023-06-26T11:30:28;8.77;;;7.88;;
15055;SDS011;7626;42.674;23.284;2023-06-26T11:33:02;11.88;;;8.23;;
15055;SDS011;7626;42.674;23.284;2023-06-26T11:35:28;7.28;;;6.57;;
15055;SDS011;7626;42.674;23.284;2023-06-26T11:37:57;8.95;;;7.00;;
15055;SDS011;7626;42.674;23.284;2023-06-26T11:40:29;7.20;;;6.20;;
15055;SDS011;7626;42.674;23.284;2023-06-26T11:42:57;7.95;;;6.03;;
15055;SDS011;7626;42.674;23.284;2023-06-26T11:45:24;7.47;;;6.78;;
15055;SDS011;7626;42.674;23.284;2023-06-26T11:47:50;6.75;;;5.85;;
15055;SDS011;7626;42.674;23.284;2023-06-26T11:50:17;8.32;;;6.25;;
15055;SDS011;7626;42.674;23.284;2023-06-26T11:52:43;6.97;;;6.10;;
15055;SDS011;7626;42.674;23.284;2023-06-26T11:55:11;7.65;;;6.85;;
15055;SDS011;7626;42.674;23.284;2023-06-26T11:57:38;6.88;;;6.05;;
15055;SDS011;7626;42.674;23.284;2023-06-26T12:00:11;7.15;;;6.38;;
15055;SDS011;7626;42.674;23.284;2023-06-26T12:02:38;7.22;;;6.53;;
15055;SDS011;7626;42.674;23.284;2023-06-26T12:05:05;7.53;;;6.80;;
15055;SDS011;7626;42.674;23.284;2023-06-26T12:07:32;7.70;;;6.50;;
15055;SDS011;7626;42.674;23.284;2023-06-26T12:09:59;6.68;;;6.05;;
15055;SDS011;7626;42.674;23.284;2023-06-26T12:12:27;6.97;;;6.32;;
15055;SDS011;7626;42.674;23.284;2023-06-26T12:14:54;7.03;;;6.38;;
15055;SDS011;7626;42.674;23.284;2023-06-26T12:17:22;10.68;;;7.50;;
15055;SDS011;7626;42.674;23.284;2023-06-26T12:19:48;8.27;;;7.05;;
15055;SDS011;7626;42.674;23.284;2023-06-26T12:22:15;8.35;;;6.80;;
15055;SDS011;7626;42.674;23.284;2023-06-26T12:24:42;9.52;;;6.93;;
15055;SDS011;7626;42.674;23.284;2023-06-26T12:27:10;9.65;;;6.32;;
15055;SDS011;7626;42.674;23.284;2023-06-26T12:29:39;7.53;;;6.75;;
15055;SDS011;7626;42.674;23.284;2023-06-26T12:32:08;7.28;;;6.50;;
15055;SDS011;7626;42.674;23.284;2023-06-26T12:34:35;8.90;;;6.38;;
15055;SDS011;7626;42.674;23.284;2023-06-26T12:37:02;7.05;;;6.38;;
15055;SDS011;7626;42.674;23.284;2023-06-26T12:39:38;6.70;;;5.72;;
15055;SDS011;7626;42.674;23.284;2023-06-26T12:42:13;6.70;;;6.10;;
15055;SDS011;7626;42.674;23.284;2023-06-26T12:44:41;7.47;;;6.28;;
15055;SDS011;7626;42.674;23.284;2023-06-26T12:47:08;6.97;;;6.38;;
15055;SDS011;7626;42.674;23.284;2023-06-26T12:49:35;7.00;;;6.32;;
15055;SDS011;7626;42.674;23.284;2023-06-26T12:52:03;9.98;;;6.80;;
15055;SDS011;7626;42.674;23.284;2023-06-26T12:54:30;7.05;;;6.35;;
15055;SDS011;7626;42.674;23.284;2023-06-26T12:56:57;6.88;;;6.28;;
15055;SDS011;7626;42.674;23.284;2023-06-26T12:59:24;7.72;;;6.70;;
15055;SDS011;7626;42.674;23.284;2023-06-26T13:01:52;7.05;;;6.45;;
15055;SDS011;7626;42.674;23.284;2023-06-26T13:04:19;8.25;;;7.43;;
15055;SDS011;7626;42.674;23.284;2023-06-26T13:06:45;8.43;;;6.53;;
15055;SDS011;7626;42.674;23.284;2023-06-26T13:09:12;7.30;;;6.60;;
15055;SDS011;7626;42.674;23.284;2023-06-26T13:11:39;7.05;;;6.45;;
15055;SDS011;7626;42.674;23.284;2023-06-26T13:14:05;7.28;;;6.57;;
15055;SDS011;7626;42.674;23.284;2023-06-26T13:16:32;9.00;;;7.60;;
15055;SDS011;7626;42.674;23.284;2023-06-26T13:19:00;8.57;;;6.65;;
15055;SDS011;7626;42.674;23.284;2023-06-26T13:21:27;6.88;;;6.28;;
15055;SDS011;7626;42.674;23.284;2023-06-26T13:23:53;8.07;;;6.68;;
15055;SDS011;7626;42.674;23.284;2023-06-26T13:26:20;9.10;;;6.30;;
15055;SDS011;7626;42.674;23.284;2023-06-26T13:28:47;6.97;;;5.75;;
15055;SDS011;7626;42.674;23.284;2023-06-26T13:31:14;8.55;;;6.10;;
15055;SDS011;7626;42.674;23.284;2023-06-26T13:33:41;7.25;;;5.60;;
15055;SDS011;7626;42.674;23.284;2023-06-26T13:36:09;7.20;;;6.30;;
15055;SDS011;7626;42.674;23.284;2023-06-26T13:38:35;6.70;;;6.10;;
15055;SDS011;7626;42.674;23.284;2023-06-26T13:41:02;6.97;;;6.25;;
15055;SDS011;7626;42.674;23.284;2023-06-26T13:43:29;6.88;;;5.70;;
15055;SDS011;7626;42.674;23.284;2023-06-26T13:45:55;6.63;;;6.03;;
15055;SDS011;7626;42.674;23.284;2023-06-26T13:48:22;7.70;;;6.20;;
15055;SDS011;7626;42.674;23.284;2023-06-26T13:50:49;9.07;;;6.90;;
15055;SDS011;7626;42.674;23.284;2023-06-26T13:53:17;7.00;;;5.97;;
15055;SDS011;7626;42.674;23.284;2023-06-26T13:55:44;8.48;;;7.55;;
15055;SDS011;7626;42.674;23.284;2023-06-26T13:58:10;8.40;;;7.60;;
15055;SDS011;7626;42.674;23.284;2023-06-26T14:00:38;8.27;;;7.05;;
15055;SDS011;7626;42.674;23.284;2023-06-26T14:03:06;8.35;;;6.70;;
15055;SDS011;7626;42.674;23.284;2023-06-26T14:05:33;7.70;;;6.57;;
15055;SDS011;7626;42.674;23.284;2023-06-26T14:07:59;7.72;;;6.65;;
15055;SDS011;7626;42.674;23.284;2023-06-26T14:10:27;6.68;;;6.00;;
15055;SDS011;7626;42.674;23.284;2023-06-26T14:12:54;8.43;;;5.85;;
15055;SDS011;7626;42.674;23.284;2023-06-26T14:15:20;7.10;;;6.50;;
15055;SDS011;7626;42.674;23.284;2023-06-26T14:17:47;7.35;;;6.25;;
15055;SDS011;7626;42.674;23.284;2023-06-26T14:20:16;9.20;;;6.60;;
15055;SDS011;7626;42.674;23.284;2023-06-26T14:22:46;7.80;;;6.25;;
15055;SDS011;7626;42.674;23.284;2023-06-26T14:25:12;6.45;;;5.50;;
15055;SDS011;7626;42.674;23.284;2023-06-26T14:27:40;7.85;;;6.00;;
15055;SDS011;7626;42.674;23.284;2023-06-26T14:30:07;7.72;;;6.43;;
15055;SDS011;7626;42.674;23.284;2023-06-26T14:32:34;6.22;;;5.63;;
15055;SDS011;7626;42.674;23.284;2023-06-26T14:35:00;7.70;;;6.40;;
15055;SDS011;7626;42.674;23.284;2023-06-26T14:37:29;7.85;;;6.25;;
15055;SDS011;7626;42.674;23.284;2023-06-26T14:39:55;9.07;;;6.30;;